createdAt,value
2022-11-26T00:00:54.351Z,37.00
2022-11-26T00:03:22.748Z,34.10
2022-11-26T00:05:54.062Z,33.20
2022-11-26T00:08:27.611Z,31.97
2022-11-26T00:10:56.332Z,35.67
2022-11-26T00:13:27.731Z,35.40
2022-11-26T00:15:57.283Z,32.93
2022-11-26T00:18:26.840Z,33.13
2022-11-26T00:20:57.197Z,31.90
2022-11-26T00:23:28.473Z,32.07
2022-11-26T00:25:59.113Z,28.50
2022-11-26T00:28:32.920Z,29.10
2022-11-26T00:31:03.187Z,26.80
2022-11-26T00:33:32.177Z,26.23
2022-11-26T00:36:04.719Z,25.63
2022-11-26T00:38:34.552Z,25.47
2022-11-26T00:41:02.912Z,25.23
2022-11-26T00:43:31.179Z,27.37
2022-11-26T00:45:59.519Z,24.53
2022-11-26T00:48:27.892Z,24.50
2022-11-26T00:50:56.192Z,25.03
2022-11-26T00:53:27.933Z,26.43
2022-11-26T00:55:57.792Z,27.97
2022-11-26T00:58:28.862Z,28.63
2022-11-26T01:00:58.987Z,27.10
2022-11-26T01:03:27.732Z,27.37
2022-11-26T01:05:58.452Z,26.67
2022-11-26T01:08:31.430Z,25.00
2022-11-26T01:11:02.045Z,24.77
2022-11-26T01:13:31.300Z,26.23
2022-11-26T01:16:02.110Z,23.93
2022-11-26T01:18:33.315Z,44.60
2022-11-26T01:21:02.742Z,36.80
2022-11-26T01:23:31.004Z,43.07
2022-11-26T01:26:06.238Z,47.07
2022-11-26T01:28:34.720Z,42.77
2022-11-26T01:31:03.050Z,38.73
2022-11-26T01:33:31.365Z,40.13
2022-11-26T01:35:59.691Z,35.70
2022-11-26T01:38:27.992Z,34.63
2022-11-26T01:41:17.760Z,33.50
2022-11-26T01:43:47.111Z,33.83
2022-11-26T01:46:17.301Z,34.07
2022-11-26T01:48:46.690Z,32.17
2022-11-26T01:51:19.272Z,34.30
2022-11-26T01:53:50.864Z,29.87
2022-11-26T01:56:30.052Z,33.10
2022-11-26T01:59:03.932Z,33.20
2022-11-26T02:01:33.111Z,33.53
2022-11-26T02:04:10.376Z,35.43
2022-11-26T02:06:38.722Z,39.70
2022-11-26T02:09:10.129Z,36.43
2022-11-26T02:11:40.576Z,34.57
2022-11-26T02:14:15.301Z,34.47
2022-11-26T02:17:07.542Z,34.77
2022-11-26T02:20:18.405Z,32.93
2022-11-26T02:23:19.295Z,32.20
2022-11-26T02:26:10.872Z,33.17
2022-11-26T02:29:01.272Z,33.30
2022-11-26T02:31:36.879Z,29.73
2022-11-26T02:34:14.799Z,32.87
2022-11-26T02:36:49.689Z,32.50
2022-11-26T02:39:20.394Z,28.10
2022-11-26T02:41:52.231Z,25.93
2022-11-26T02:44:23.232Z,25.60
2022-11-26T02:46:56.770Z,33.93
2022-11-26T02:49:25.331Z,27.33
2022-11-26T02:51:58.506Z,27.97
2022-11-26T02:54:28.326Z,27.70
2022-11-26T02:56:58.160Z,28.97
2022-11-26T02:59:26.723Z,26.40
2022-11-26T03:02:00.919Z,26.67
2022-11-26T03:04:34.573Z,29.07
2022-11-26T03:07:05.759Z,25.87
2022-11-26T03:09:41.507Z,30.80
2022-11-26T03:12:10.156Z,37.07
2022-11-26T03:14:38.814Z,33.43
2022-11-26T03:17:08.750Z,28.40
2022-11-26T03:19:37.113Z,27.97
2022-11-26T03:22:05.942Z,30.13
2022-11-26T03:24:34.674Z,31.53
2022-11-26T03:27:03.021Z,29.10
2022-11-26T03:29:31.673Z,25.10
2022-11-26T03:32:00.286Z,29.67
2022-11-26T03:34:29.887Z,26.23
2022-11-26T03:36:58.170Z,33.83
2022-11-26T03:39:26.508Z,27.90
2022-11-26T03:41:54.748Z,33.23
2022-11-26T03:44:23.229Z,32.23
2022-11-26T03:46:51.593Z,31.53
2022-11-26T03:49:19.851Z,32.73
2022-11-26T03:51:49.441Z,29.23
2022-11-26T03:54:17.710Z,29.60
2022-11-26T03:56:46.060Z,27.93
2022-11-26T03:59:14.399Z,28.07
2022-11-26T04:01:42.866Z,26.87
2022-11-26T04:04:11.313Z,26.47
2022-11-26T04:06:39.722Z,27.90
2022-11-26T04:09:09.287Z,27.23
2022-11-26T04:11:37.611Z,29.53
2022-11-26T04:14:05.972Z,28.13
2022-11-26T04:16:34.449Z,27.30
2022-11-26T04:19:02.770Z,27.70
2022-11-26T04:21:30.980Z,36.90
2022-11-26T04:23:59.333Z,34.33
2022-11-26T04:26:28.880Z,31.17
2022-11-26T04:28:57.161Z,39.33
2022-11-26T04:31:25.523Z,32.27
2022-11-26T04:33:54.022Z,32.93
2022-11-26T04:36:22.325Z,30.20
2022-11-26T04:38:50.692Z,31.23
2022-11-26T04:41:18.992Z,32.20
2022-11-26T04:43:48.657Z,31.40
2022-11-26T04:46:16.988Z,30.33
2022-11-26T04:48:45.346Z,29.73
2022-11-26T04:51:13.735Z,34.63
2022-11-26T04:53:42.030Z,33.63
2022-11-26T04:56:10.323Z,31.70
2022-11-26T04:58:38.662Z,32.00
2022-11-26T05:01:08.738Z,29.30
2022-11-26T05:03:37.360Z,29.77
2022-11-26T05:06:06.074Z,30.03
2022-11-26T05:08:34.343Z,29.07
2022-11-26T05:11:03.279Z,29.93
2022-11-26T05:13:31.751Z,28.93
2022-11-26T05:16:00.097Z,29.20
2022-11-26T05:18:29.705Z,27.30
2022-11-26T05:20:58.089Z,27.67
2022-11-26T05:23:26.403Z,28.10
2022-11-26T05:25:54.675Z,30.17
2022-11-26T05:28:23.022Z,31.37
2022-11-26T05:30:51.407Z,32.13
2022-11-26T05:33:19.823Z,30.63
2022-11-26T05:35:49.483Z,31.87
2022-11-26T05:38:17.761Z,28.23
2022-11-26T05:40:46.051Z,29.47
2022-11-26T05:43:14.384Z,27.03
2022-11-26T05:45:42.922Z,26.50
2022-11-26T05:48:11.240Z,29.77
2022-11-26T05:50:39.594Z,30.27
2022-11-26T05:53:09.300Z,29.07
2022-11-26T05:55:37.641Z,28.27
2022-11-26T05:58:05.912Z,27.40
2022-11-26T06:00:34.273Z,30.23
2022-11-26T06:03:02.773Z,27.23
2022-11-26T06:05:31.122Z,26.50
2022-11-26T06:07:59.836Z,27.50
2022-11-26T06:10:29.613Z,33.03
2022-11-26T06:12:57.924Z,30.73
2022-11-26T06:15:26.280Z,28.70
2022-11-26T06:17:54.575Z,31.97
2022-11-26T06:20:22.974Z,36.43
2022-11-26T06:22:51.251Z,29.73
2022-11-26T06:25:19.921Z,27.77
2022-11-26T06:27:49.593Z,26.30
2022-11-26T06:30:17.937Z,25.50
2022-11-26T06:32:46.191Z,25.57
2022-11-26T06:35:14.660Z,24.57
2022-11-26T06:37:43.243Z,26.80
2022-11-26T06:40:18.011Z,24.93
2022-11-26T06:42:51.041Z,24.07
2022-11-26T06:45:19.356Z,25.73
2022-11-26T06:47:48.123Z,26.73
2022-11-26T06:50:17.130Z,26.07
2022-11-26T06:52:45.463Z,26.87
2022-11-26T06:55:13.739Z,26.83
2022-11-26T06:57:41.979Z,27.00
2022-11-26T07:00:12.822Z,27.93
2022-11-26T07:02:42.347Z,28.17
2022-11-26T07:05:10.864Z,27.80
2022-11-26T07:07:40.414Z,26.00
2022-11-26T07:10:09.481Z,28.97
2022-11-26T07:12:37.880Z,27.60
2022-11-26T07:15:06.819Z,28.77
2022-11-26T07:17:36.465Z,29.30
2022-11-26T07:20:05.212Z,29.80
2022-11-26T07:22:35.288Z,28.87
2022-11-26T07:25:06.040Z,30.77
2022-11-26T07:27:36.562Z,28.33
2022-11-26T07:30:05.384Z,29.70
2022-11-26T07:32:33.722Z,30.77
2022-11-26T07:35:07.753Z,29.20
2022-11-26T07:37:36.440Z,29.70
2022-11-26T07:40:05.863Z,28.60
2022-11-26T07:42:34.632Z,33.27
2022-11-26T07:45:03.895Z,33.47
2022-11-26T07:47:32.256Z,34.07
2022-11-26T07:50:00.692Z,31.37
2022-11-26T07:52:30.492Z,33.17
2022-11-26T07:54:58.882Z,31.37
2022-11-26T07:57:27.503Z,28.37
2022-11-26T07:59:55.830Z,30.00
2022-11-26T08:02:24.173Z,33.17
2022-11-26T08:04:52.691Z,32.47
2022-11-26T08:07:26.043Z,31.60
2022-11-26T08:09:58.753Z,30.13
2022-11-26T08:12:27.427Z,31.63
2022-11-26T08:14:55.668Z,31.53
2022-11-26T08:17:24.053Z,31.00
2022-11-26T08:19:52.385Z,31.13
2022-11-26T08:22:20.804Z,29.23
2022-11-26T08:24:49.121Z,31.93
2022-11-26T08:27:19.053Z,30.47
2022-11-26T08:29:47.353Z,31.27
2022-11-26T08:32:15.781Z,26.33
2022-11-26T08:34:44.815Z,28.83
2022-11-26T08:37:13.030Z,28.10
2022-11-26T08:39:41.414Z,28.97
2022-11-26T08:42:09.720Z,27.70
2022-11-26T08:44:39.569Z,33.13
2022-11-26T08:47:08.161Z,29.43
2022-11-26T08:49:36.442Z,33.87
2022-11-26T08:52:04.940Z,30.97
2022-11-26T08:54:33.405Z,28.00
2022-11-26T08:57:01.758Z,29.10
2022-11-26T08:59:30.071Z,28.47
2022-11-26T09:01:59.755Z,30.00
2022-11-26T09:04:28.132Z,28.53
2022-11-26T09:06:56.441Z,30.83
2022-11-26T09:09:24.812Z,29.63
2022-11-26T09:11:57.824Z,31.97
2022-11-26T09:14:28.548Z,29.23
2022-11-26T09:16:58.149Z,27.13
2022-11-26T09:19:29.483Z,25.60
2022-11-26T09:21:57.941Z,27.90
2022-11-26T09:24:26.405Z,28.33
2022-11-26T09:26:55.164Z,27.50
2022-11-26T09:29:25.151Z,29.97
2022-11-26T09:34:43.564Z,28.37
2022-11-26T09:37:11.878Z,26.43
2022-11-26T09:39:40.128Z,26.93
2022-11-26T09:42:10.763Z,27.07
2022-11-26T09:44:56.900Z,27.57
2022-11-26T09:47:28.334Z,28.50
2022-11-26T09:50:08.391Z,26.67
2022-11-26T09:52:42.511Z,25.57
2022-11-26T09:55:16.987Z,26.43
2022-11-26T09:57:50.664Z,28.27
2022-11-26T10:00:27.289Z,26.50
2022-11-26T10:02:57.175Z,27.80
2022-11-26T10:05:37.953Z,27.73
2022-11-26T10:08:15.698Z,28.33
2022-11-26T10:10:52.683Z,28.23
2022-11-26T10:13:29.159Z,28.33
2022-11-26T10:16:08.300Z,29.67
2022-11-26T10:18:46.073Z,28.57
2022-11-26T10:21:32.432Z,29.23
2022-11-26T10:24:17.061Z,28.07
2022-11-26T10:26:45.953Z,30.97
2022-11-26T10:29:24.254Z,30.73
2022-11-26T10:31:58.320Z,30.73
2022-11-26T10:34:37.497Z,30.27
2022-11-26T10:37:09.104Z,30.07
2022-11-26T10:39:37.524Z,30.10
2022-11-26T10:42:10.684Z,30.47
2022-11-26T10:44:41.890Z,29.20
2022-11-26T10:47:27.475Z,30.00
2022-11-26T10:49:58.440Z,28.30
2022-11-26T10:52:30.512Z,28.33
2022-11-26T10:55:19.121Z,30.00
2022-11-26T10:57:52.007Z,29.83
2022-11-26T11:00:45.654Z,29.70
2022-11-26T11:03:25.159Z,29.37
2022-11-26T11:06:26.494Z,29.73
2022-11-26T11:08:56.332Z,29.67
2022-11-26T11:11:26.373Z,29.10
2022-11-26T11:13:55.083Z,30.67
2022-11-26T11:16:29.183Z,31.57
2022-11-26T11:18:59.570Z,29.70
2022-11-26T11:21:34.458Z,30.40
2022-11-26T11:24:15.498Z,29.87
2022-11-26T11:26:45.485Z,30.17
2022-11-26T11:29:32.886Z,30.40
2022-11-26T11:32:04.575Z,30.40
2022-11-26T11:34:35.385Z,31.73
2022-11-26T11:37:10.527Z,30.63
2022-11-26T11:39:42.637Z,31.33
2022-11-26T11:42:21.751Z,31.57
2022-11-26T11:44:52.001Z,30.53
2022-11-26T11:47:35.339Z,31.37
2022-11-26T11:50:18.046Z,29.93
2022-11-26T11:52:59.797Z,31.63
2022-11-26T11:55:40.911Z,27.80
2022-11-26T11:58:36.912Z,30.47
2022-11-26T12:01:15.254Z,29.87
2022-11-26T12:04:12.815Z,30.63
2022-11-26T12:06:55.911Z,33.13
2022-11-26T12:09:28.750Z,31.50
2022-11-26T12:12:02.718Z,31.47
2022-11-26T12:14:37.195Z,30.67
2022-11-26T12:17:13.228Z,31.27
2022-11-26T12:19:48.723Z,31.53
2022-11-26T12:22:21.752Z,30.13
2022-11-26T12:24:53.696Z,31.43
2022-11-26T12:27:31.641Z,29.50
2022-11-26T12:30:04.955Z,29.00
2022-11-26T12:32:37.473Z,29.53
2022-11-26T12:35:12.456Z,29.77
2022-11-26T12:37:43.022Z,29.40
2022-11-26T12:40:25.981Z,28.37
2022-11-26T12:42:59.861Z,28.50
2022-11-26T12:45:41.450Z,28.93
2022-11-26T12:48:19.527Z,29.70
2022-11-26T12:50:53.971Z,29.97
2022-11-26T12:53:38.291Z,29.37
2022-11-26T12:56:15.559Z,29.13
2022-11-26T12:58:53.576Z,28.80
2022-11-26T13:01:24.286Z,29.73
2022-11-26T13:04:14.397Z,28.93
2022-11-26T13:06:59.360Z,28.73
2022-11-26T13:09:42.301Z,29.07
2022-11-26T13:12:19.391Z,29.13
2022-11-26T13:14:55.182Z,29.97
2022-11-26T13:17:29.380Z,29.63
2022-11-26T13:20:06.190Z,31.57
2022-11-26T13:22:49.512Z,32.13
2022-11-26T13:25:37.349Z,32.40
2022-11-26T13:28:17.753Z,33.20
2022-11-26T13:31:02.291Z,31.20
2022-11-26T13:34:11.909Z,33.50
2022-11-26T13:37:00.912Z,31.13
2022-11-26T13:40:03.579Z,32.10
2022-11-26T13:42:54.053Z,32.43
2022-11-26T13:45:58.310Z,31.93
2022-11-26T13:48:37.201Z,32.00
2022-11-26T13:51:12.803Z,31.17
2022-11-26T13:53:47.221Z,32.70
2022-11-26T13:56:16.292Z,30.67
2022-11-26T13:58:49.008Z,29.23
2022-11-26T14:01:35.505Z,29.67
2022-11-26T14:04:07.891Z,28.60
2022-11-26T14:06:37.401Z,29.27
2022-11-26T14:09:06.879Z,30.47
2022-11-26T14:11:58.111Z,30.63
2022-11-26T14:14:37.395Z,29.00
2022-11-26T14:17:25.107Z,28.77
2022-11-26T14:20:12.855Z,27.47
2022-11-26T14:22:41.335Z,27.50
2022-11-26T14:25:12.163Z,27.20
2022-11-26T14:27:44.576Z,28.50
2022-11-26T14:30:29.301Z,28.03
2022-11-26T14:33:15.362Z,27.73
2022-11-26T14:35:55.707Z,27.87
2022-11-26T14:38:27.352Z,29.37
2022-11-26T14:41:00.414Z,28.13
2022-11-26T14:43:29.650Z,28.20
2022-11-26T14:46:05.337Z,27.33
2022-11-26T14:48:36.782Z,28.10
2022-11-26T14:51:09.518Z,29.00
2022-11-26T14:53:44.721Z,31.23
2022-11-26T14:56:13.138Z,28.77
2022-11-26T14:58:45.403Z,27.67
2022-11-26T15:01:21.099Z,31.50
2022-11-26T15:04:00.693Z,27.63
2022-11-26T15:06:35.023Z,27.43
2022-11-26T15:09:15.309Z,26.90
2022-11-26T15:11:48.368Z,26.83
2022-11-26T15:14:27.371Z,26.73
2022-11-26T15:16:59.840Z,27.37
2022-11-26T15:19:31.913Z,25.87
2022-11-26T15:22:03.387Z,25.10
2022-11-26T15:24:32.677Z,26.53
2022-11-26T15:27:00.954Z,25.43
2022-11-26T15:29:41.122Z,27.63
2022-11-26T15:32:28.099Z,26.87
2022-11-26T15:34:58.081Z,26.57
2022-11-26T15:37:28.360Z,27.90
2022-11-26T15:40:11.762Z,26.63
2022-11-26T15:42:40.533Z,26.10
2022-11-26T15:45:16.050Z,25.90
2022-11-26T15:47:48.542Z,27.97
2022-11-26T15:50:28.782Z,27.03
2022-11-26T15:53:03.930Z,28.37
2022-11-26T15:55:36.092Z,29.23
2022-11-26T15:58:09.880Z,27.33
2022-11-26T16:00:41.100Z,30.13
2022-11-26T16:03:45.275Z,27.37
2022-11-26T16:06:33.043Z,26.50
2022-11-26T16:09:06.912Z,24.60
2022-11-26T16:11:37.423Z,24.40
2022-11-26T16:14:29.063Z,23.30
2022-11-26T16:16:58.334Z,22.63
2022-11-26T16:19:29.478Z,21.50
2022-11-26T16:21:58.094Z,21.43
2022-11-26T16:24:32.153Z,20.13
2022-11-26T16:27:02.949Z,19.97
2022-11-26T16:29:32.415Z,20.20
2022-11-26T16:32:01.017Z,20.20
2022-11-26T16:34:30.081Z,21.60
2022-11-26T16:37:03.486Z,23.07
2022-11-26T16:39:39.139Z,23.67
2022-11-26T16:42:15.711Z,25.63
2022-11-26T16:44:44.156Z,24.47
2022-11-26T16:47:16.950Z,24.50
2022-11-26T16:49:45.260Z,26.07
2022-11-26T16:52:16.010Z,24.40
2022-11-26T16:54:45.714Z,26.30
2022-11-26T16:57:16.491Z,24.07
2022-11-26T16:59:45.893Z,26.37
2022-11-26T17:02:17.701Z,24.23
2022-11-26T17:04:46.852Z,25.17
2022-11-26T17:07:16.759Z,24.50
2022-11-26T17:09:46.465Z,24.40
2022-11-26T17:12:19.259Z,25.07
2022-11-26T17:14:48.615Z,27.93
2022-11-26T17:17:23.611Z,25.33
2022-11-26T17:19:53.458Z,32.03
2022-11-26T17:22:21.819Z,33.63
2022-11-26T17:24:51.798Z,44.73
2022-11-26T17:27:23.416Z,46.50
2022-11-26T17:29:51.779Z,45.00
2022-11-26T17:32:20.991Z,41.27
2022-11-26T17:34:49.350Z,37.20
2022-11-26T17:37:24.125Z,32.07
2022-11-26T17:39:53.786Z,31.13
2022-11-26T17:42:23.968Z,31.80
2022-11-26T17:44:53.003Z,27.83
2022-11-26T17:47:24.935Z,27.27
2022-11-26T17:49:53.710Z,26.67
2022-11-26T17:52:23.040Z,25.57
2022-11-26T17:54:51.443Z,24.80
2022-11-26T17:57:22.940Z,26.63
2022-11-26T17:59:51.384Z,24.20
2022-11-26T18:02:19.777Z,23.50
2022-11-26T18:04:48.140Z,23.70
2022-11-26T18:07:19.425Z,24.27
2022-11-26T18:09:48.049Z,24.80
2022-11-26T18:12:24.582Z,22.93
2022-11-26T18:14:55.490Z,23.17
2022-11-26T18:17:24.051Z,23.57
2022-11-26T18:19:52.448Z,23.60
2022-11-26T18:22:23.161Z,22.17
2022-11-26T18:24:56.942Z,23.77
2022-11-26T18:27:28.102Z,22.10
2022-11-26T18:29:57.764Z,22.57
2022-11-26T18:32:26.060Z,22.20
2022-11-26T18:34:54.555Z,22.77
2022-11-26T18:37:22.891Z,23.97
2022-11-26T18:39:51.138Z,27.07
2022-11-26T18:42:36.469Z,26.27
2022-11-26T18:45:10.245Z,26.03
2022-11-26T18:47:38.669Z,26.27
2022-11-26T18:50:08.381Z,25.87
2022-11-26T18:52:36.811Z,24.90
2022-11-26T18:55:08.221Z,24.90
2022-11-26T18:57:36.730Z,26.90
2022-11-26T19:00:08.877Z,26.37
2022-11-26T19:02:37.336Z,25.47
2022-11-26T19:05:06.260Z,26.87
2022-11-26T19:07:34.957Z,25.47
2022-11-26T19:10:03.739Z,26.40
2022-11-26T19:12:32.072Z,25.43
2022-11-26T19:15:00.323Z,25.30
2022-11-26T19:17:29.969Z,26.23
2022-11-26T19:19:58.292Z,26.23
2022-11-26T19:22:26.704Z,25.93
2022-11-26T19:24:55.164Z,27.20
2022-11-26T19:27:23.500Z,27.23
2022-11-26T19:29:51.762Z,26.20
2022-11-26T19:32:20.019Z,25.90
2022-11-26T19:34:49.763Z,28.00
2022-11-26T19:37:18.052Z,25.10
2022-11-26T19:39:46.390Z,25.20
2022-11-26T19:42:14.701Z,25.70
2022-11-26T19:44:43.139Z,27.13
2022-11-26T19:47:11.491Z,25.90
2022-11-26T19:49:40.065Z,26.90
2022-11-26T19:52:09.871Z,26.80
2022-11-26T19:54:38.182Z,24.77
2022-11-26T19:57:07.260Z,25.80
2022-11-26T19:59:35.632Z,24.07
2022-11-26T20:02:03.970Z,26.60
2022-11-26T20:04:32.365Z,24.80
2022-11-26T20:07:00.629Z,24.50
2022-11-26T20:09:30.334Z,23.60
2022-11-26T20:11:58.861Z,23.27
2022-11-26T20:14:27.116Z,22.53
2022-11-26T20:17:00.672Z,21.40
2022-11-26T20:19:29.652Z,22.17
2022-11-26T20:21:57.972Z,24.50
2022-11-26T20:24:26.381Z,23.70
2022-11-26T20:26:56.150Z,25.47
2022-11-26T20:29:25.352Z,22.97
2022-11-26T20:31:54.440Z,23.50
2022-11-26T20:34:24.470Z,23.73
2022-11-26T20:36:53.124Z,22.40
2022-11-26T20:39:23.983Z,22.90
2022-11-26T20:41:52.620Z,23.00
2022-11-26T20:44:23.147Z,23.73
2022-11-26T20:46:51.563Z,24.47
2022-11-26T20:49:19.926Z,24.63
2022-11-26T20:51:48.212Z,25.87
2022-11-26T20:54:16.623Z,23.77
2022-11-26T20:56:44.901Z,24.90
2022-11-26T20:59:13.167Z,23.50
2022-11-26T21:01:42.876Z,24.87
2022-11-26T21:04:11.222Z,25.33
2022-11-26T21:06:42.501Z,25.37
2022-11-26T21:09:13.325Z,26.13
2022-11-26T21:11:42.289Z,25.73
2022-11-26T21:14:14.807Z,25.73
2022-11-26T21:16:45.026Z,26.77
2022-11-26T21:19:14.023Z,28.10
2022-11-26T21:21:43.062Z,26.77
2022-11-26T21:24:11.366Z,27.30
2022-11-26T21:26:39.941Z,27.27
2022-11-26T21:29:08.281Z,26.53
2022-11-26T21:31:36.621Z,26.00
2022-11-26T21:34:08.342Z,26.03
2022-11-26T21:36:37.729Z,27.30
2022-11-26T21:39:07.164Z,25.40
2022-11-26T21:41:35.701Z,25.80
2022-11-26T21:44:04.357Z,25.37
2022-11-26T21:46:38.359Z,26.10
2022-11-26T21:49:08.635Z,25.67
2022-11-26T21:51:37.249Z,27.40
2022-11-26T21:54:05.910Z,26.13
2022-11-26T21:56:34.715Z,28.10
2022-11-26T21:59:03.482Z,28.43
2022-11-26T22:01:33.901Z,26.80
2022-11-26T22:04:05.032Z,29.10
2022-11-26T22:06:35.004Z,26.47
2022-11-26T22:09:03.518Z,27.23
2022-11-26T22:11:33.929Z,26.57
2022-11-26T22:14:02.477Z,24.07
2022-11-26T22:16:31.894Z,24.00
2022-11-26T22:19:01.211Z,26.83
2022-11-26T22:21:31.834Z,25.57
2022-11-26T22:24:02.980Z,24.97
2022-11-26T22:26:32.617Z,24.47
2022-11-26T22:29:01.583Z,25.93
2022-11-26T22:31:32.001Z,25.47
2022-11-26T22:34:02.081Z,25.10
2022-11-26T22:36:30.843Z,23.80
2022-11-26T22:38:59.793Z,24.17
2022-11-26T22:41:29.450Z,24.33
2022-11-26T22:44:00.209Z,23.17
2022-11-26T22:46:28.592Z,23.00
2022-11-26T22:48:59.203Z,23.87
2022-11-26T22:51:29.521Z,21.73
2022-11-26T22:53:59.392Z,23.00
2022-11-26T22:56:29.693Z,22.60
2022-11-26T22:58:58.148Z,22.17
2022-11-26T23:01:28.233Z,23.43
2022-11-26T23:03:59.437Z,25.07
2022-11-26T23:06:31.198Z,23.70
2022-11-26T23:09:00.702Z,25.70
2022-11-26T23:11:34.959Z,24.67
2022-11-26T23:14:05.015Z,25.63
2022-11-26T23:16:33.683Z,25.67
2022-11-26T23:19:02.066Z,25.37
2022-11-26T23:21:32.358Z,26.03
2022-11-26T23:24:00.871Z,24.57
2022-11-26T23:26:33.198Z,26.60
2022-11-26T23:29:03.331Z,24.40
2022-11-26T23:31:33.934Z,23.93
2022-11-26T23:34:02.880Z,23.27
2022-11-26T23:36:32.139Z,22.37
2022-11-26T23:39:01.702Z,22.53
2022-11-26T23:41:31.480Z,22.27
2022-11-26T23:43:59.853Z,22.50
2022-11-26T23:46:31.023Z,25.07
2022-11-26T23:48:59.914Z,27.67
2022-11-26T23:51:30.198Z,26.40
2022-11-26T23:53:58.636Z,25.80
2022-11-26T23:56:28.910Z,24.57
2022-11-26T23:59:01.643Z,27.00
